createdAt,value
2022-11-17T00:00:56.027Z,99657.28
2022-11-17T00:01:58.378Z,99642.72
2022-11-17T00:03:00.572Z,99648.94
2022-11-17T00:04:02.747Z,99639.44
2022-11-17T00:05:05.293Z,99637.00
2022-11-17T00:06:07.424Z,99631.25
2022-11-17T00:07:09.659Z,99633.03
2022-11-17T00:08:12.006Z,99637.28
2022-11-17T00:09:17.468Z,99632.91
2022-11-17T00:10:20.054Z,99628.34
2022-11-17T00:11:22.301Z,99626.97
2022-11-17T00:12:43.302Z,99618.09
2022-11-17T00:14:04.036Z,99621.34
2022-11-17T00:15:06.769Z,99615.00
2022-11-17T00:16:13.718Z,99620.97
2022-11-17T00:17:15.876Z,99620.97
2022-11-17T00:18:36.856Z,99621.50
2022-11-17T00:19:58.925Z,99632.63
2022-11-17T00:21:19.269Z,99628.19
2022-11-17T00:22:21.940Z,99625.16
2022-11-17T00:23:47.047Z,99630.19
2022-11-17T00:24:50.241Z,99623.50
2022-11-17T00:25:55.374Z,99617.16
2022-11-17T00:27:06.263Z,99622.59
2022-11-17T00:28:08.416Z,99620.00
2022-11-17T00:29:10.557Z,99626.66
2022-11-17T00:30:33.163Z,99621.41
2022-11-17T00:31:53.673Z,99622.50
2022-11-17T00:33:19.309Z,99619.84
2022-11-17T00:34:23.385Z,99615.88
2022-11-17T00:35:28.299Z,99617.97
2022-11-17T00:36:31.471Z,99614.47
2022-11-17T00:37:37.373Z,99620.19
2022-11-17T00:38:39.734Z,99616.41
2022-11-17T00:39:41.916Z,99611.75
2022-11-17T00:40:44.354Z,99610.13
2022-11-17T00:41:47.054Z,99616.59
2022-11-17T00:42:49.275Z,99608.06
2022-11-17T00:43:51.626Z,99611.03
2022-11-17T00:44:53.764Z,99607.09
2022-11-17T00:45:56.094Z,99612.09
2022-11-17T00:46:58.433Z,99616.59
2022-11-17T00:48:00.636Z,99621.13
2022-11-17T00:49:03.927Z,99612.16
2022-11-17T00:50:06.526Z,99622.75
2022-11-17T00:51:08.868Z,99611.91
2022-11-17T00:52:11.312Z,99615.19
2022-11-17T00:53:13.453Z,99614.72
2022-11-17T00:54:15.917Z,99617.53
2022-11-17T00:55:18.106Z,99608.50
2022-11-17T00:56:20.500Z,99611.06
2022-11-17T00:57:22.821Z,99616.66
2022-11-17T00:58:24.957Z,99607.47
2022-11-17T00:59:27.314Z,99615.22
2022-11-17T01:00:29.507Z,99614.09
2022-11-17T01:01:34.878Z,99613.03
2022-11-17T01:02:37.339Z,99615.22
2022-11-17T01:03:39.528Z,99611.28
2022-11-17T01:04:41.858Z,99617.13
2022-11-17T01:05:43.988Z,99621.66
2022-11-17T01:06:48.586Z,99609.72
2022-11-17T01:07:53.029Z,99620.22
2022-11-17T01:08:55.178Z,99619.47
2022-11-17T01:09:57.411Z,99618.84
2022-11-17T01:11:19.779Z,99623.06
2022-11-17T01:12:22.190Z,99610.59
2022-11-17T01:13:24.435Z,99611.06
2022-11-17T01:14:34.014Z,99611.00
2022-11-17T01:15:36.232Z,99609.00
2022-11-17T01:16:38.559Z,99615.72
2022-11-17T01:17:41.033Z,99614.22
2022-11-17T01:18:45.811Z,99619.13
2022-11-17T01:19:49.066Z,99619.72
2022-11-17T01:20:51.224Z,99607.00
2022-11-17T01:21:53.489Z,99603.38
2022-11-17T01:22:58.832Z,99615.13
2022-11-17T01:24:02.003Z,99608.84
2022-11-17T01:25:05.033Z,99609.75
2022-11-17T01:26:10.373Z,99606.75
2022-11-17T01:27:15.038Z,99605.19
2022-11-17T01:28:17.239Z,99609.97
2022-11-17T01:29:19.427Z,99609.75
2022-11-17T01:30:21.725Z,99617.34
2022-11-17T01:31:29.643Z,99612.50
2022-11-17T01:32:32.160Z,99604.53
2022-11-17T01:33:34.978Z,99616.66
2022-11-17T01:34:37.452Z,99614.78
2022-11-17T01:35:42.338Z,99607.28
2022-11-17T01:37:03.553Z,99618.53
2022-11-17T01:38:05.974Z,99610.00
2022-11-17T01:39:08.107Z,99610.03
2022-11-17T01:40:13.477Z,99610.22
2022-11-17T01:41:25.729Z,99611.81
2022-11-17T01:42:28.237Z,99608.72
2022-11-17T01:43:44.563Z,99606.28
2022-11-17T01:44:56.014Z,99601.06
2022-11-17T01:45:58.568Z,99610.00
2022-11-17T01:47:01.374Z,99599.66
2022-11-17T01:48:07.210Z,99599.22
2022-11-17T01:49:35.755Z,99595.13
2022-11-17T01:50:40.528Z,99596.13
2022-11-17T01:51:48.595Z,99604.78
2022-11-17T01:52:53.867Z,99602.25
2022-11-17T01:53:56.328Z,99599.88
2022-11-17T01:55:00.484Z,99592.56
2022-11-17T01:56:11.072Z,99605.81
2022-11-17T01:57:16.254Z,99599.53
2022-11-17T01:58:24.523Z,99602.44
2022-11-17T01:59:37.380Z,99597.47
2022-11-17T02:00:40.356Z,99598.09
2022-11-17T02:01:55.799Z,99593.97
2022-11-17T02:02:58.806Z,99588.31
2022-11-17T02:04:01.069Z,99592.38
2022-11-17T02:05:21.928Z,99584.91
2022-11-17T02:06:29.795Z,99579.53
2022-11-17T02:07:36.404Z,99585.53
2022-11-17T02:08:41.462Z,99580.31
2022-11-17T02:09:46.805Z,99587.03
2022-11-17T02:10:51.894Z,99572.13
2022-11-17T02:11:58.496Z,99577.31
2022-11-17T02:13:01.453Z,99571.34
2022-11-17T02:14:05.511Z,99569.03
2022-11-17T02:15:08.316Z,99574.00
2022-11-17T02:16:18.245Z,99575.53
2022-11-17T02:17:22.062Z,99571.34
2022-11-17T02:18:24.492Z,99573.31
2022-11-17T02:19:31.976Z,99580.28
2022-11-17T02:20:55.751Z,99581.38
2022-11-17T02:22:03.838Z,99577.88
2022-11-17T02:23:20.697Z,99572.31
2022-11-17T02:24:50.240Z,99575.88
2022-11-17T02:26:21.621Z,99569.66
2022-11-17T02:27:39.112Z,99585.47
2022-11-17T02:29:13.724Z,99580.97
2022-11-17T02:30:19.282Z,99573.69
2022-11-17T02:31:38.310Z,99574.34
2022-11-17T02:32:58.753Z,99579.38
2022-11-17T02:34:10.196Z,99575.56
2022-11-17T02:35:19.763Z,99581.34
2022-11-17T02:36:41.420Z,99584.44
2022-11-17T02:38:04.836Z,99579.53
2022-11-17T02:39:22.519Z,99577.81
2022-11-17T02:40:43.028Z,99570.56
2022-11-17T02:42:07.203Z,99567.94
2022-11-17T02:43:36.521Z,99575.03
2022-11-17T02:44:51.113Z,99560.81
2022-11-17T02:46:16.925Z,99559.47
2022-11-17T02:47:25.386Z,99560.81
2022-11-17T02:48:32.921Z,99562.16
2022-11-17T02:49:41.235Z,99565.53
2022-11-17T02:50:46.896Z,99559.25
2022-11-17T02:51:53.788Z,99568.31
2022-11-17T02:52:56.594Z,99562.94
2022-11-17T02:54:00.136Z,99559.44
2022-11-17T02:55:05.868Z,99565.41
2022-11-17T02:56:08.052Z,99563.50
2022-11-17T02:57:29.052Z,99563.22
2022-11-17T02:58:31.355Z,99550.97
2022-11-17T02:59:43.456Z,99551.72
2022-11-17T03:01:19.702Z,99551.69
2022-11-17T03:02:37.077Z,99551.03
2022-11-17T03:04:04.460Z,99551.59
2022-11-17T03:05:09.667Z,99542.91
2022-11-17T03:06:36.278Z,99550.69
2022-11-17T03:07:47.559Z,99551.97
2022-11-17T03:09:08.680Z,99550.25
2022-11-17T03:10:28.971Z,99547.47
2022-11-17T03:11:48.381Z,99547.03
2022-11-17T03:13:22.725Z,99553.06
2022-11-17T03:14:33.875Z,99548.63
2022-11-17T03:16:12.993Z,99535.53
2022-11-17T03:17:29.986Z,99539.19
2022-11-17T03:18:46.810Z,99543.00
2022-11-17T03:20:24.473Z,99542.69
2022-11-17T03:21:31.762Z,99542.31
2022-11-17T03:22:43.752Z,99544.09
2022-11-17T03:24:07.896Z,99552.53
2022-11-17T03:25:15.932Z,99546.97
2022-11-17T03:26:27.507Z,99544.72
2022-11-17T03:27:37.680Z,99554.88
2022-11-17T03:28:44.211Z,99557.09
2022-11-17T03:29:51.247Z,99546.41
2022-11-17T03:30:54.226Z,99551.22
2022-11-17T03:32:02.267Z,99550.88
2022-11-17T03:33:10.985Z,99549.41
2022-11-17T03:34:17.563Z,99545.75
2022-11-17T03:35:24.020Z,99550.34
2022-11-17T03:36:32.252Z,99546.84
2022-11-17T03:37:37.275Z,99547.16
2022-11-17T03:38:47.872Z,99542.66
2022-11-17T03:39:53.712Z,99551.31
2022-11-17T03:41:00.410Z,99542.03
2022-11-17T03:42:13.531Z,99552.34
2022-11-17T03:43:18.446Z,99543.91
2022-11-17T03:44:24.217Z,99551.34
2022-11-17T03:45:32.046Z,99547.47
2022-11-17T03:46:36.973Z,99559.75
2022-11-17T03:47:40.444Z,99552.91
2022-11-17T03:48:53.847Z,99540.25
2022-11-17T03:50:27.724Z,99543.66
2022-11-17T03:51:33.171Z,99538.03
2022-11-17T03:52:38.236Z,99537.59
2022-11-17T03:53:40.847Z,99543.59
2022-11-17T03:54:43.120Z,99539.91
2022-11-17T03:55:57.161Z,99547.31
2022-11-17T03:57:27.319Z,99534.09
2022-11-17T03:58:33.614Z,99540.66
2022-11-17T03:59:56.931Z,99538.44
2022-11-17T04:01:02.746Z,99535.31
2022-11-17T04:02:05.174Z,99540.94
2022-11-17T04:03:07.643Z,99552.91
2022-11-17T04:04:21.174Z,99549.75
2022-11-17T04:05:23.446Z,99548.50
2022-11-17T04:06:25.849Z,99548.72
2022-11-17T04:07:28.062Z,99546.72
2022-11-17T04:08:30.945Z,99544.34
2022-11-17T04:09:33.168Z,99543.34
2022-11-17T04:10:55.494Z,99540.50
2022-11-17T04:12:16.214Z,99543.88
2022-11-17T04:13:37.754Z,99541.97
2022-11-17T04:14:58.740Z,99540.50
2022-11-17T04:16:01.666Z,99541.50
2022-11-17T04:17:03.820Z,99535.16
2022-11-17T04:18:06.405Z,99535.59
2022-11-17T04:19:09.125Z,99524.75
2022-11-17T04:20:11.429Z,99525.38
2022-11-17T04:21:13.761Z,99529.19
2022-11-17T04:22:15.900Z,99534.78
2022-11-17T04:23:18.371Z,99528.78
2022-11-17T04:24:20.759Z,99525.66
2022-11-17T04:25:42.940Z,99527.63
2022-11-17T04:27:04.118Z,99523.09
2022-11-17T04:28:25.253Z,99529.22
2022-11-17T04:29:28.685Z,99523.34
2022-11-17T04:30:30.847Z,99516.03
2022-11-17T04:31:33.062Z,99519.13
2022-11-17T04:32:35.440Z,99523.50
2022-11-17T04:33:40.060Z,99520.03
2022-11-17T04:34:42.799Z,99522.38
2022-11-17T04:35:50.347Z,99516.28
2022-11-17T04:36:52.794Z,99516.78
2022-11-17T04:37:55.280Z,99515.44
2022-11-17T04:38:59.101Z,99520.59
2022-11-17T04:40:01.616Z,99521.94
2022-11-17T04:41:25.522Z,99522.06
2022-11-17T04:42:28.762Z,99523.31
2022-11-17T04:43:31.195Z,99522.00
2022-11-17T04:44:33.351Z,99524.22
2022-11-17T04:45:35.877Z,99516.25
2022-11-17T04:46:39.828Z,99514.16
2022-11-17T04:47:41.980Z,99512.75
2022-11-17T04:48:45.344Z,99512.78
2022-11-17T04:49:47.529Z,99516.97
2022-11-17T04:50:56.752Z,99519.00
2022-11-17T04:51:59.012Z,99518.69
2022-11-17T04:53:01.185Z,99517.84
2022-11-17T04:54:05.120Z,99517.53
2022-11-17T04:55:08.219Z,99524.19
2022-11-17T04:56:10.556Z,99518.84
2022-11-17T04:57:12.725Z,99522.91
2022-11-17T04:58:15.164Z,99518.88
2022-11-17T04:59:17.866Z,99518.53
2022-11-17T05:00:20.293Z,99523.56
2022-11-17T05:01:23.608Z,99521.59
2022-11-17T05:02:25.778Z,99517.22
2022-11-17T05:03:28.194Z,99518.84
2022-11-17T05:04:48.892Z,99511.09
2022-11-17T05:05:51.450Z,99514.16
2022-11-17T05:06:53.688Z,99506.94
2022-11-17T05:07:55.874Z,99508.72
2022-11-17T05:08:59.876Z,99505.38
2022-11-17T05:10:02.084Z,99502.19
2022-11-17T05:11:25.196Z,99509.31
2022-11-17T05:12:46.097Z,99510.59
2022-11-17T05:13:49.932Z,99509.94
2022-11-17T05:14:52.425Z,99519.59
2022-11-17T05:16:15.587Z,99507.31
2022-11-17T05:17:18.160Z,99503.88
2022-11-17T05:18:20.318Z,99507.13
2022-11-17T05:19:25.336Z,99508.06
2022-11-17T05:20:27.521Z,99502.06
2022-11-17T05:21:30.081Z,99496.47
2022-11-17T05:22:50.863Z,99502.44
2022-11-17T05:23:55.781Z,99504.25
2022-11-17T05:24:58.283Z,99499.06
2022-11-17T05:26:00.644Z,99499.38
2022-11-17T05:27:03.003Z,99504.44
2022-11-17T05:28:05.260Z,99499.50
2022-11-17T05:29:08.780Z,99493.53
2022-11-17T05:30:11.713Z,99503.84
2022-11-17T05:31:13.920Z,99506.81
2022-11-17T05:32:16.890Z,99496.94
2022-11-17T05:33:19.045Z,99502.56
2022-11-17T05:34:21.324Z,99506.81
2022-11-17T05:35:23.668Z,99511.78
2022-11-17T05:36:27.750Z,99498.28
2022-11-17T05:37:30.142Z,99515.25
2022-11-17T05:38:32.406Z,99515.19
2022-11-17T05:39:34.753Z,99512.25
2022-11-17T05:40:36.937Z,99506.66
2022-11-17T05:41:39.146Z,99507.53
2022-11-17T05:42:41.492Z,99518.03
2022-11-17T05:43:44.479Z,99511.75
2022-11-17T05:44:48.544Z,99511.88
2022-11-17T05:45:50.936Z,99510.78
2022-11-17T05:46:53.564Z,99506.41
2022-11-17T05:47:55.729Z,99505.69
2022-11-17T05:48:57.919Z,99502.34
2022-11-17T05:50:00.326Z,99512.84
2022-11-17T05:51:02.968Z,99508.25
2022-11-17T05:52:05.518Z,99508.16
2022-11-17T05:53:07.717Z,99505.06
2022-11-17T05:54:10.198Z,99499.81
2022-11-17T05:55:12.409Z,99497.44
2022-11-17T05:56:33.355Z,99507.28
2022-11-17T05:57:35.974Z,99501.00
2022-11-17T05:58:42.299Z,99505.41
2022-11-17T05:59:50.153Z,99504.88
2022-11-17T06:00:54.393Z,99490.44
2022-11-17T06:02:08.684Z,99504.59
2022-11-17T06:03:21.593Z,99496.47
2022-11-17T06:04:24.397Z,99497.53
2022-11-17T06:05:27.381Z,99499.09
2022-11-17T06:06:30.852Z,99499.88
2022-11-17T06:07:34.886Z,99497.28
2022-11-17T06:08:37.389Z,99494.78
2022-11-17T06:09:42.062Z,99494.41
2022-11-17T06:10:44.274Z,99506.47
2022-11-17T06:11:46.645Z,99495.06
2022-11-17T06:12:49.034Z,99495.28
2022-11-17T06:13:51.228Z,99500.72
2022-11-17T06:14:53.795Z,99494.19
2022-11-17T06:15:58.858Z,99506.59
2022-11-17T06:17:07.067Z,99488.28
2022-11-17T06:18:15.057Z,99503.16
2022-11-17T06:19:24.993Z,99486.03
2022-11-17T06:20:37.361Z,99477.28
2022-11-17T06:22:09.848Z,99496.28
2022-11-17T06:23:06.081Z,99489.75
2022-11-17T06:24:09.062Z,99494.69
2022-11-17T06:25:11.713Z,99491.22
2022-11-17T06:26:15.075Z,99493.25
2022-11-17T06:27:17.539Z,99489.66
2022-11-17T06:28:22.710Z,99484.22
2022-11-17T06:29:25.997Z,99484.13
2022-11-17T06:30:29.275Z,99482.34
2022-11-17T06:31:32.519Z,99492.34
2022-11-17T06:32:37.941Z,99492.78
2022-11-17T06:33:40.371Z,99484.88
2022-11-17T06:34:49.065Z,99491.81
2022-11-17T06:35:54.406Z,99483.63
2022-11-17T06:36:56.785Z,99485.09
2022-11-17T06:38:00.060Z,99483.06
2022-11-17T06:39:02.529Z,99486.81
2022-11-17T06:40:05.242Z,99477.28
2022-11-17T06:41:11.617Z,99480.13
2022-11-17T06:42:14.515Z,99482.75
2022-11-17T06:43:16.934Z,99472.09
2022-11-17T06:44:19.330Z,99488.69
2022-11-17T06:45:21.523Z,99487.59
2022-11-17T06:46:23.676Z,99482.34
2022-11-17T06:47:26.051Z,99482.38
2022-11-17T06:48:28.349Z,99486.28
2022-11-17T06:49:31.009Z,99483.59
2022-11-17T06:50:33.829Z,99479.25
2022-11-17T06:51:38.020Z,99481.44
2022-11-17T06:52:43.356Z,99474.81
2022-11-17T06:53:45.735Z,99479.59
2022-11-17T06:54:47.909Z,99478.13
2022-11-17T06:56:01.308Z,99474.44
2022-11-17T06:57:03.704Z,99479.81
2022-11-17T06:58:08.144Z,99472.56
2022-11-17T06:59:10.504Z,99468.56
2022-11-17T07:00:13.171Z,99467.28
2022-11-17T07:01:15.728Z,99465.88
2022-11-17T07:02:18.587Z,99471.81
2022-11-17T07:03:20.935Z,99474.69
2022-11-17T07:04:23.279Z,99467.41
2022-11-17T07:05:25.450Z,99475.09
2022-11-17T07:06:27.609Z,99454.09
2022-11-17T07:07:29.878Z,99466.13
2022-11-17T07:08:33.111Z,99464.03
2022-11-17T07:09:35.873Z,99459.31
2022-11-17T07:10:38.333Z,99460.84
2022-11-17T07:11:40.517Z,99464.09
2022-11-17T07:12:42.889Z,99467.59
2022-11-17T07:13:45.214Z,99464.84
2022-11-17T07:14:47.550Z,99465.75
2022-11-17T07:15:50.193Z,99462.09
2022-11-17T07:16:52.447Z,99464.75
2022-11-17T07:17:54.912Z,99463.81
2022-11-17T07:18:59.243Z,99470.78
2022-11-17T07:20:01.748Z,99462.88
2022-11-17T07:21:06.002Z,99478.72
2022-11-17T07:22:08.357Z,99460.97
2022-11-17T07:23:10.860Z,99468.19
2022-11-17T07:24:13.037Z,99467.28
2022-11-17T07:25:21.106Z,99463.91
2022-11-17T07:26:24.827Z,99467.72
2022-11-17T07:27:27.137Z,99468.50
2022-11-17T07:28:30.129Z,99466.81
2022-11-17T07:29:32.755Z,99464.66
2022-11-17T07:30:36.172Z,99473.19
2022-11-17T07:31:38.486Z,99468.53
2022-11-17T07:32:40.675Z,99466.34
2022-11-17T07:33:42.850Z,99472.41
2022-11-17T07:34:45.462Z,99465.41
2022-11-17T07:35:47.910Z,99468.94
2022-11-17T07:36:50.274Z,99463.03
2022-11-17T07:37:56.171Z,99467.88
2022-11-17T07:38:58.357Z,99468.19
2022-11-17T07:40:00.954Z,99471.47
2022-11-17T07:41:04.579Z,99472.41
2022-11-17T07:42:07.241Z,99469.56
2022-11-17T07:43:09.719Z,99470.56
2022-11-17T07:44:12.270Z,99479.41
2022-11-17T07:45:14.739Z,99476.06
2022-11-17T07:46:16.880Z,99477.88
2022-11-17T07:47:19.337Z,99473.09
2022-11-17T07:48:21.669Z,99472.78
2022-11-17T07:49:24.344Z,99473.88
2022-11-17T07:50:27.181Z,99473.66
2022-11-17T07:51:29.601Z,99469.09
2022-11-17T07:52:32.827Z,99478.69
2022-11-17T07:53:37.254Z,99467.06
2022-11-17T07:54:39.571Z,99470.53
2022-11-17T07:55:42.126Z,99472.41
2022-11-17T07:56:44.382Z,99479.13
2022-11-17T07:57:46.879Z,99468.34
2022-11-17T07:58:49.185Z,99479.19
2022-11-17T07:59:51.375Z,99472.28
2022-11-17T08:00:53.611Z,99476.06
2022-11-17T08:01:55.990Z,99484.59
2022-11-17T08:03:03.567Z,99472.47
2022-11-17T08:04:05.992Z,99478.97
2022-11-17T08:05:09.015Z,99476.13
2022-11-17T08:06:11.369Z,99482.44
2022-11-17T08:07:14.014Z,99478.00
2022-11-17T08:08:16.427Z,99477.50
2022-11-17T08:09:18.893Z,99483.97
2022-11-17T08:10:21.528Z,99477.69
2022-11-17T08:11:23.897Z,99483.88
2022-11-17T08:12:26.268Z,99470.97
2022-11-17T08:13:28.481Z,99470.19
2022-11-17T08:14:30.618Z,99477.66
2022-11-17T08:15:33.022Z,99462.91
2022-11-17T08:16:35.198Z,99464.06
2022-11-17T08:17:37.592Z,99465.22
2022-11-17T08:18:40.151Z,99462.50
2022-11-17T08:19:42.613Z,99463.88
2022-11-17T08:20:44.992Z,99464.53
2022-11-17T08:21:47.580Z,99463.88
2022-11-17T08:22:51.178Z,99457.59
2022-11-17T08:23:54.999Z,99461.81
2022-11-17T08:24:57.342Z,99459.78
2022-11-17T08:26:01.693Z,99458.28
2022-11-17T08:27:03.877Z,99451.44
2022-11-17T08:28:06.294Z,99456.25
2022-11-17T08:29:08.746Z,99447.09
2022-11-17T08:30:11.395Z,99455.56
2022-11-17T08:31:13.955Z,99459.81
2022-11-17T08:32:16.507Z,99456.59
2022-11-17T08:33:18.927Z,99448.06
2022-11-17T08:34:21.361Z,99457.13
2022-11-17T08:35:25.576Z,99451.06
2022-11-17T08:36:28.097Z,99453.50
2022-11-17T08:37:30.912Z,99447.31
2022-11-17T08:38:33.739Z,99452.69
2022-11-17T08:39:36.426Z,99453.50
2022-11-17T08:40:39.147Z,99452.72
2022-11-17T08:41:41.452Z,99456.72
2022-11-17T08:42:44.213Z,99454.31
2022-11-17T08:43:46.461Z,99458.50
2022-11-17T08:44:49.001Z,99456.94
2022-11-17T08:45:51.360Z,99457.53
2022-11-17T08:46:53.599Z,99469.59
2022-11-17T08:47:56.866Z,99452.94
2022-11-17T08:49:00.866Z,99452.41
2022-11-17T08:50:04.684Z,99444.66
2022-11-17T08:51:08.843Z,99448.19
2022-11-17T08:52:11.068Z,99461.25
2022-11-17T08:53:15.420Z,99450.19
2022-11-17T08:54:17.614Z,99453.28
2022-11-17T08:55:19.879Z,99447.13
2022-11-17T08:56:22.237Z,99453.75
2022-11-17T08:57:24.440Z,99447.31
2022-11-17T08:58:26.868Z,99454.44
2022-11-17T08:59:29.052Z,99454.06
2022-11-17T09:00:31.480Z,99447.50
2022-11-17T09:01:35.074Z,99452.47
2022-11-17T09:02:38.364Z,99455.50
2022-11-17T09:03:44.882Z,99455.09
2022-11-17T09:04:47.749Z,99464.22
2022-11-17T09:05:50.232Z,99460.94
2022-11-17T09:06:52.643Z,99460.63
2022-11-17T09:07:55.060Z,99463.69
2022-11-17T09:08:57.888Z,99458.31
2022-11-17T09:10:00.871Z,99449.03
2022-11-17T09:11:08.762Z,99464.22
2022-11-17T09:12:10.988Z,99461.97
2022-11-17T09:13:18.418Z,99459.28
2022-11-17T09:14:20.882Z,99464.88
2022-11-17T09:15:23.849Z,99461.50
2022-11-17T09:16:26.479Z,99464.03
2022-11-17T09:17:28.653Z,99467.44
2022-11-17T09:18:31.087Z,99469.78
2022-11-17T09:19:33.279Z,99460.59
2022-11-17T09:20:35.532Z,99454.56
2022-11-17T09:21:37.916Z,99455.81
2022-11-17T09:22:40.114Z,99459.53
2022-11-17T09:23:42.806Z,99452.59
2022-11-17T09:24:44.967Z,99448.31
2022-11-17T09:25:48.610Z,99451.16
2022-11-17T09:26:53.535Z,99456.31
2022-11-17T09:27:55.904Z,99457.50
2022-11-17T09:29:04.285Z,99455.47
2022-11-17T09:30:11.092Z,99457.69
2022-11-17T09:31:16.546Z,99464.13
2022-11-17T09:32:20.906Z,99455.41
2022-11-17T09:33:23.126Z,99453.81
2022-11-17T09:34:25.646Z,99464.13
2022-11-17T09:35:30.740Z,99456.28
2022-11-17T09:36:33.148Z,99462.59
2022-11-17T09:37:35.618Z,99458.22
2022-11-17T09:38:38.427Z,99463.75
2022-11-17T09:39:41.014Z,99455.44
2022-11-17T09:40:43.841Z,99455.78
2022-11-17T09:41:49.332Z,99454.63
2022-11-17T09:42:52.092Z,99463.69
2022-11-17T09:44:26.379Z,99466.06
2022-11-17T09:45:37.443Z,99451.94
2022-11-17T09:46:57.679Z,99456.44
2022-11-17T09:48:38.799Z,99448.47
2022-11-17T09:49:55.257Z,99471.13
2022-11-17T09:51:04.391Z,99457.94
2022-11-17T09:52:46.045Z,99459.41
2022-11-17T09:53:50.814Z,99461.06
2022-11-17T09:55:08.112Z,99455.81
2022-11-17T09:56:12.223Z,99457.84
2022-11-17T09:57:38.339Z,99457.47
2022-11-17T09:58:58.776Z,99455.81
2022-11-17T10:00:15.107Z,99447.94
2022-11-17T10:01:23.518Z,99447.97
2022-11-17T10:02:25.785Z,99455.56
2022-11-17T10:03:31.065Z,99455.59
2022-11-17T10:04:34.328Z,99464.72
2022-11-17T10:05:38.019Z,99448.97
2022-11-17T10:06:46.493Z,99458.69
2022-11-17T10:07:51.607Z,99456.75
2022-11-17T10:09:06.957Z,99457.00
2022-11-17T10:10:18.459Z,99452.91
2022-11-17T10:11:32.558Z,99463.50
2022-11-17T10:12:42.883Z,99470.69
2022-11-17T10:13:45.307Z,99455.25
2022-11-17T10:14:51.661Z,99461.03
2022-11-17T10:15:58.011Z,99463.63
2022-11-17T10:17:00.187Z,99465.69
2022-11-17T10:18:02.342Z,99453.53
2022-11-17T10:19:18.298Z,99466.66
2022-11-17T10:20:20.691Z,99465.53
2022-11-17T10:21:23.484Z,99456.88
2022-11-17T10:22:45.348Z,99465.31
2022-11-17T10:23:59.662Z,99449.25
2022-11-17T10:25:04.788Z,99453.38
2022-11-17T10:26:12.871Z,99458.38
2022-11-17T10:27:19.496Z,99456.47
2022-11-17T10:28:32.324Z,99456.66
2022-11-17T10:29:36.671Z,99457.34
2022-11-17T10:30:39.120Z,99457.94
2022-11-17T10:31:45.048Z,99459.38
2022-11-17T10:32:55.643Z,99462.03
2022-11-17T10:33:58.076Z,99454.69
2022-11-17T10:35:16.825Z,99462.59
2022-11-17T10:36:20.701Z,99451.00
2022-11-17T10:37:30.720Z,99448.84
2022-11-17T10:38:34.163Z,99459.72
2022-11-17T10:39:40.037Z,99453.47
2022-11-17T10:40:42.768Z,99451.34
2022-11-17T10:41:50.471Z,99450.94
2022-11-17T10:43:17.702Z,99445.16
2022-11-17T10:44:32.511Z,99437.53
2022-11-17T10:45:35.333Z,99445.75
2022-11-17T10:47:02.781Z,99440.72
2022-11-17T10:48:17.267Z,99449.66
2022-11-17T10:49:32.883Z,99444.22
2022-11-17T10:50:35.363Z,99443.81
2022-11-17T10:51:37.980Z,99444.63
2022-11-17T10:52:40.306Z,99445.16
2022-11-17T10:53:46.685Z,99436.94
2022-11-17T10:54:49.885Z,99439.59
2022-11-17T10:56:02.532Z,99442.50
2022-11-17T10:57:15.101Z,99432.13
2022-11-17T10:58:31.048Z,99435.03
2022-11-17T10:59:56.729Z,99435.81
2022-11-17T11:01:03.108Z,99436.94
2022-11-17T11:02:29.891Z,99447.00
2022-11-17T11:03:34.812Z,99447.81
2022-11-17T11:04:42.139Z,99440.84
2022-11-17T11:05:57.531Z,99438.91
2022-11-17T11:07:21.587Z,99429.56
2022-11-17T11:08:30.836Z,99434.06
2022-11-17T11:09:35.805Z,99425.47
2022-11-17T11:10:38.216Z,99423.56
2022-11-17T11:11:47.750Z,99414.13
2022-11-17T11:13:02.170Z,99425.47
2022-11-17T11:14:30.870Z,99414.09
2022-11-17T11:15:36.103Z,99411.34
2022-11-17T11:16:40.414Z,99408.25
2022-11-17T11:17:45.324Z,99412.53
2022-11-17T11:18:50.773Z,99399.78
2022-11-17T11:19:53.696Z,99408.25
2022-11-17T11:21:42.286Z,99403.59
2022-11-17T11:22:59.670Z,99392.06
2022-11-17T11:24:33.707Z,99402.81
2022-11-17T11:25:47.695Z,99382.97
2022-11-17T11:27:26.882Z,99386.34
2022-11-17T11:29:05.315Z,99384.44
2022-11-17T11:30:12.584Z,99385.19
2022-11-17T11:31:44.249Z,99384.41
2022-11-17T11:32:58.594Z,99386.38
2022-11-17T11:34:24.735Z,99382.16
2022-11-17T11:35:32.966Z,99371.59
2022-11-17T11:36:49.306Z,99379.56
2022-11-17T11:38:38.697Z,99377.19
2022-11-17T11:40:02.750Z,99374.53
2022-11-17T11:41:35.716Z,99369.34
2022-11-17T11:42:50.175Z,99376.03
2022-11-17T11:44:36.789Z,99379.56
2022-11-17T11:45:49.559Z,99368.72
2022-11-17T11:47:13.332Z,99372.28
2022-11-17T11:48:31.987Z,99382.81
2022-11-17T11:49:40.481Z,99363.34
2022-11-17T11:50:53.788Z,99371.78
2022-11-17T11:51:55.962Z,99365.88
2022-11-17T11:53:02.230Z,99368.91
2022-11-17T11:54:17.379Z,99368.09
2022-11-17T11:55:27.749Z,99366.63
2022-11-17T11:56:38.199Z,99359.81
2022-11-17T11:57:48.229Z,99365.59
2022-11-17T11:59:15.678Z,99359.78
2022-11-17T12:00:18.566Z,99363.22
2022-11-17T12:01:23.552Z,99370.25
2022-11-17T12:02:38.630Z,99361.25
2022-11-17T12:03:56.754Z,99363.09
2022-11-17T12:05:21.966Z,99353.97
2022-11-17T12:06:42.895Z,99360.16
2022-11-17T12:08:12.539Z,99360.78
2022-11-17T12:09:33.701Z,99363.09
2022-11-17T12:10:44.063Z,99353.22
2022-11-17T12:12:00.666Z,99353.25
2022-11-17T12:13:04.863Z,99343.56
2022-11-17T12:14:17.256Z,99359.66
2022-11-17T12:15:19.366Z,99354.13
2022-11-17T12:16:31.957Z,99365.56
2022-11-17T12:17:34.885Z,99356.72
2022-11-17T12:18:37.173Z,99365.00
2022-11-17T12:19:52.586Z,99359.69
2022-11-17T12:21:13.374Z,99356.50
2022-11-17T12:22:31.810Z,99358.06
2022-11-17T12:23:44.991Z,99358.91
2022-11-17T12:24:47.372Z,99355.69
2022-11-17T12:25:56.972Z,99355.63
2022-11-17T12:27:33.513Z,99350.16
2022-11-17T12:28:41.028Z,99348.66
2022-11-17T12:29:47.345Z,99353.19
2022-11-17T12:30:53.099Z,99351.09
2022-11-17T12:31:58.166Z,99345.56
2022-11-17T12:33:01.831Z,99346.69
2022-11-17T12:34:07.824Z,99349.75
2022-11-17T12:35:33.046Z,99349.63
2022-11-17T12:36:36.228Z,99348.94
2022-11-17T12:37:41.541Z,99350.91
2022-11-17T12:38:43.946Z,99350.16
2022-11-17T12:39:59.909Z,99361.97
2022-11-17T12:41:06.330Z,99345.34
2022-11-17T12:42:08.716Z,99340.97
2022-11-17T12:43:16.590Z,99348.84
2022-11-17T12:44:37.321Z,99347.72
2022-11-17T12:46:05.740Z,99338.50
2022-11-17T12:47:15.361Z,99336.09
2022-11-17T12:48:35.591Z,99343.31
2022-11-17T12:49:56.273Z,99347.63
2022-11-17T12:51:08.275Z,99349.78
2022-11-17T12:52:19.764Z,99351.81
2022-11-17T12:53:33.049Z,99348.19
2022-11-17T12:54:48.113Z,99345.31
2022-11-17T12:55:59.688Z,99345.59
2022-11-17T12:57:13.936Z,99355.19
2022-11-17T12:58:25.382Z,99348.22
2022-11-17T12:59:33.522Z,99352.44
2022-11-17T13:00:49.028Z,99344.72
2022-11-17T13:02:28.966Z,99344.72
2022-11-17T13:04:08.425Z,99337.22
2022-11-17T13:05:22.657Z,99352.41
2022-11-17T13:06:35.431Z,99354.13
2022-11-17T13:07:39.526Z,99346.88
2022-11-17T13:09:01.874Z,99347.03
2022-11-17T13:10:04.530Z,99339.81
2022-11-17T13:11:14.500Z,99344.03
2022-11-17T13:12:22.032Z,99345.09
2022-11-17T13:13:25.015Z,99343.28
2022-11-17T13:14:27.808Z,99343.56
2022-11-17T13:15:30.027Z,99348.31
2022-11-17T13:16:32.448Z,99340.28
2022-11-17T13:17:55.222Z,99340.22